createdAt,value
2023-05-16T00:01:35.842Z,88.20
2023-05-16T00:04:39.115Z,88.45
2023-05-16T00:07:47.606Z,88.53
2023-05-16T00:10:50.531Z,88.61
2023-05-16T00:13:53.512Z,88.81
2023-05-16T00:16:59.705Z,88.76
2023-05-16T00:20:11.349Z,89.04
2023-05-16T00:23:14.367Z,89.11
2023-05-16T00:26:17.398Z,89.05
2023-05-16T00:29:20.321Z,88.83
2023-05-16T00:32:23.395Z,88.95
2023-05-16T00:35:26.830Z,89.04
2023-05-16T00:38:29.918Z,88.91
2023-05-16T00:41:34.315Z,88.90
2023-05-16T00:44:37.169Z,88.76
2023-05-16T00:47:40.515Z,88.40
2023-05-16T00:50:44.116Z,88.03
2023-05-16T00:53:47.095Z,88.63
2023-05-16T00:56:50.489Z,88.98
2023-05-16T00:59:53.803Z,89.17
2023-05-16T01:02:57.255Z,89.06
2023-05-16T01:06:00.451Z,89.05
2023-05-16T01:09:04.843Z,89.22
2023-05-16T01:12:47.329Z,87.84
2023-05-16T01:16:08.132Z,88.16
2023-05-16T01:19:29.101Z,88.43
2023-05-16T01:22:51.809Z,88.65
2023-05-16T01:26:09.141Z,88.02
2023-05-16T01:29:12.633Z,88.36
2023-05-16T01:32:17.109Z,88.47
2023-05-16T01:35:20.925Z,88.46
2023-05-16T01:38:33.704Z,88.22
2023-05-16T01:41:55.680Z,88.32
2023-05-16T01:45:15.315Z,88.67
2023-05-16T01:48:24.042Z,88.87
2023-05-16T01:51:31.163Z,88.51
2023-05-16T01:54:38.902Z,88.31
2023-05-16T01:57:42.700Z,88.86
2023-05-16T02:00:45.674Z,88.53
2023-05-16T02:03:48.677Z,87.39
2023-05-16T02:06:52.248Z,87.77
2023-05-16T02:09:55.324Z,88.04
2023-05-16T02:12:58.227Z,87.73
2023-05-16T02:16:01.228Z,88.46
2023-05-16T02:19:04.361Z,88.14
2023-05-16T02:22:07.327Z,88.34
2023-05-16T02:25:10.603Z,88.40
2023-05-16T02:28:13.615Z,88.41
2023-05-16T02:31:30.305Z,87.65
2023-05-16T02:34:33.585Z,87.39
2023-05-16T02:37:36.789Z,87.38
2023-05-16T02:40:39.850Z,87.95
2023-05-16T02:43:46.778Z,87.60
2023-05-16T02:46:50.056Z,87.05
2023-05-16T02:49:53.248Z,87.30
2023-05-16T02:52:56.737Z,87.67
2023-05-16T02:55:59.900Z,88.01
2023-05-16T02:59:04.361Z,88.32
2023-05-16T03:02:08.322Z,88.50
2023-05-16T03:05:11.937Z,88.51
2023-05-16T03:08:15.294Z,88.57
2023-05-16T03:11:23.028Z,88.61
2023-05-16T03:14:26.056Z,88.69
2023-05-16T03:17:29.306Z,88.50
2023-05-16T03:20:32.223Z,88.18
2023-05-16T03:23:35.178Z,87.30
2023-05-16T03:26:38.066Z,86.31
2023-05-16T03:29:41.064Z,85.03
2023-05-16T03:32:46.161Z,83.43
2023-05-16T03:35:49.083Z,81.83
2023-05-16T03:38:52.057Z,79.48
2023-05-16T03:41:57.459Z,76.75
2023-05-16T03:45:00.390Z,74.97
2023-05-16T03:48:03.447Z,72.71
2023-05-16T03:51:06.426Z,70.03
2023-05-16T03:54:09.325Z,66.11
2023-05-16T03:57:12.313Z,63.98
2023-05-16T04:00:15.737Z,61.51
2023-05-16T04:03:18.712Z,59.43
2023-05-16T04:06:22.149Z,57.60
2023-05-16T04:09:25.403Z,55.68
2023-05-16T04:12:28.465Z,52.55
2023-05-16T04:15:31.433Z,52.78
2023-05-16T04:18:34.557Z,53.66
2023-05-16T04:21:37.644Z,53.05
2023-05-16T04:24:40.574Z,54.52
2023-05-16T04:27:43.941Z,54.65
2023-05-16T04:30:47.792Z,53.44
2023-05-16T04:33:50.701Z,50.63
2023-05-16T04:36:55.496Z,47.30
2023-05-16T04:40:01.388Z,45.98
2023-05-16T04:43:04.467Z,44.39
2023-05-16T04:46:10.321Z,43.85
2023-05-16T04:49:13.436Z,44.60
2023-05-16T04:52:16.645Z,45.80
2023-05-16T04:55:19.483Z,47.82
2023-05-16T04:58:24.285Z,50.41
2023-05-16T05:01:27.201Z,51.73
2023-05-16T05:04:30.200Z,53.02
2023-05-16T05:07:35.564Z,54.39
2023-05-16T05:10:40.721Z,54.48
2023-05-16T05:13:43.944Z,55.61
2023-05-16T05:16:47.022Z,55.93
2023-05-16T05:19:50.052Z,55.39
2023-05-16T05:22:53.684Z,55.27
2023-05-16T05:25:56.737Z,55.02
2023-05-16T05:29:05.261Z,54.36
2023-05-16T05:32:09.311Z,53.93
2023-05-16T05:35:12.592Z,53.73
2023-05-16T05:38:17.071Z,52.62
2023-05-16T05:41:20.133Z,52.59
2023-05-16T05:44:23.945Z,52.89
2023-05-16T05:47:27.113Z,52.86
2023-05-16T05:50:30.316Z,52.32
2023-05-16T05:53:33.657Z,53.93
2023-05-16T05:56:36.639Z,53.65
2023-05-16T05:59:39.749Z,54.05
2023-05-16T06:02:43.053Z,53.10
2023-05-16T06:05:46.410Z,51.04
2023-05-16T06:08:49.390Z,53.09
2023-05-16T06:11:52.449Z,49.94
2023-05-16T06:14:56.045Z,52.62
2023-05-16T06:17:59.547Z,53.86
2023-05-16T06:21:02.763Z,49.91
2023-05-16T06:24:06.570Z,49.80
2023-05-16T06:27:09.647Z,50.57
2023-05-16T06:30:12.949Z,48.37
2023-05-16T06:33:16.246Z,47.80
2023-05-16T06:36:19.360Z,48.30
2023-05-16T06:39:22.534Z,48.81
2023-05-16T06:42:25.640Z,48.40
2023-05-16T06:45:29.391Z,47.13
2023-05-16T06:48:32.720Z,45.39
2023-05-16T06:51:35.901Z,45.38
2023-05-16T06:54:39.139Z,45.90
2023-05-16T06:57:42.408Z,47.65
2023-05-16T07:00:45.486Z,47.68
2023-05-16T07:03:48.894Z,47.33
2023-05-16T07:06:52.184Z,45.01
2023-05-16T07:09:55.203Z,47.02
2023-05-16T07:12:58.523Z,43.86
2023-05-16T07:16:01.696Z,44.48
2023-05-16T07:19:04.960Z,44.63
2023-05-16T07:22:08.987Z,44.42
2023-05-16T07:25:13.066Z,45.75
2023-05-16T07:28:16.337Z,46.01
2023-05-16T07:31:19.504Z,46.31
2023-05-16T07:34:23.081Z,45.89
2023-05-16T07:37:26.279Z,46.85
2023-05-16T07:40:29.573Z,45.98
2023-05-16T07:43:35.505Z,45.68
2023-05-16T07:46:38.941Z,45.90
2023-05-16T07:49:42.248Z,46.02
2023-05-16T07:52:45.562Z,47.06
2023-05-16T07:55:50.195Z,48.98
2023-05-16T07:58:54.280Z,46.99
2023-05-16T08:01:57.505Z,46.35
2023-05-16T08:05:01.358Z,46.36
2023-05-16T08:08:04.674Z,46.62
2023-05-16T08:11:08.239Z,47.72
2023-05-16T08:14:11.793Z,49.31
2023-05-16T08:17:15.224Z,47.01
2023-05-16T08:20:18.655Z,48.03
2023-05-16T08:23:21.961Z,47.72
2023-05-16T08:26:25.738Z,47.35
2023-05-16T08:29:29.831Z,46.07
2023-05-16T08:32:33.613Z,47.91
2023-05-16T08:35:36.945Z,46.33
2023-05-16T08:38:40.127Z,45.29
2023-05-16T08:41:43.451Z,43.91
2023-05-16T08:44:47.294Z,43.41
2023-05-16T08:47:54.938Z,43.08
2023-05-16T08:50:58.206Z,42.99
2023-05-16T08:54:06.673Z,44.00
2023-05-16T08:57:10.452Z,43.72
2023-05-16T09:00:15.224Z,43.61
2023-05-16T09:03:20.665Z,41.60
2023-05-16T09:06:24.993Z,42.16
2023-05-16T09:09:29.132Z,42.15
2023-05-16T09:12:32.856Z,43.62
2023-05-16T09:15:36.087Z,43.83
2023-05-16T09:18:40.610Z,43.42
2023-05-16T09:21:43.853Z,44.40
2023-05-16T09:24:47.112Z,43.38
2023-05-16T09:27:55.220Z,42.62
2023-05-16T09:31:00.143Z,43.60
2023-05-16T09:34:07.672Z,42.55
2023-05-16T09:37:12.496Z,41.63
2023-05-16T09:40:16.830Z,40.77
2023-05-16T09:43:25.893Z,41.02
2023-05-16T09:46:29.083Z,41.87
2023-05-16T09:49:37.754Z,42.74
2023-05-16T09:52:41.005Z,41.01
2023-05-16T09:55:44.257Z,39.22
2023-05-16T09:58:48.002Z,39.80
2023-05-16T10:01:53.251Z,40.48
2023-05-16T10:04:57.518Z,39.78
2023-05-16T10:08:04.157Z,40.79
2023-05-16T10:11:07.448Z,39.18
2023-05-16T10:14:12.636Z,38.59
2023-05-16T10:17:16.714Z,39.49
2023-05-16T10:20:21.672Z,38.90
2023-05-16T10:23:26.703Z,39.95
2023-05-16T10:26:31.088Z,38.80
2023-05-16T10:29:46.554Z,38.78
2023-05-16T10:32:58.022Z,38.56
2023-05-16T10:36:02.370Z,38.22
2023-05-16T10:39:06.175Z,38.34
2023-05-16T10:42:10.119Z,38.61
2023-05-16T10:45:18.540Z,38.28
2023-05-16T10:48:30.442Z,37.55
2023-05-16T10:51:36.936Z,37.89
2023-05-16T10:54:42.773Z,41.25
2023-05-16T10:57:45.960Z,44.17
2023-05-16T11:01:10.678Z,43.94
2023-05-16T11:04:13.986Z,45.03
2023-05-16T11:07:21.150Z,45.71
2023-05-16T11:10:24.569Z,45.53
2023-05-16T11:13:27.553Z,46.11
2023-05-16T11:16:31.324Z,46.94
2023-05-16T11:19:43.972Z,46.17
2023-05-16T11:22:47.438Z,46.45
2023-05-16T11:25:58.626Z,45.57
2023-05-16T11:29:02.806Z,46.33
2023-05-16T11:32:06.218Z,46.81
2023-05-16T11:35:15.527Z,46.52
2023-05-16T11:38:18.710Z,46.86
2023-05-16T11:41:23.417Z,46.71
2023-05-16T11:44:27.542Z,45.18
2023-05-16T11:47:32.242Z,45.14
2023-05-16T11:50:36.467Z,45.27
2023-05-16T11:53:39.903Z,46.17
2023-05-16T11:56:43.169Z,47.42
2023-05-16T11:59:46.529Z,48.83
2023-05-16T12:02:51.269Z,48.47
2023-05-16T12:05:58.161Z,48.81
2023-05-16T12:09:04.295Z,49.07
2023-05-16T12:12:08.038Z,50.14
2023-05-16T12:15:12.559Z,50.87
2023-05-16T12:18:17.606Z,51.53
2023-05-16T12:21:21.019Z,52.32
2023-05-16T12:24:32.631Z,52.80
2023-05-16T12:27:36.005Z,54.53
2023-05-16T12:30:43.259Z,55.95
2023-05-16T12:33:47.162Z,55.42
2023-05-16T12:36:54.043Z,55.72
2023-05-16T12:40:01.310Z,57.34
2023-05-16T12:43:14.943Z,58.42
2023-05-16T12:46:20.053Z,59.41
2023-05-16T12:49:23.463Z,59.50
2023-05-16T12:52:32.006Z,57.36
2023-05-16T12:55:35.316Z,58.11
2023-05-16T12:58:42.124Z,57.68
2023-05-16T13:01:46.837Z,56.78
2023-05-16T13:04:50.096Z,56.50
2023-05-16T13:07:53.217Z,55.55
2023-05-16T13:10:59.215Z,54.12
2023-05-16T13:14:02.504Z,54.52
2023-05-16T13:17:05.891Z,54.63
2023-05-16T13:20:10.539Z,54.66
2023-05-16T13:23:14.185Z,54.97
2023-05-16T13:26:17.189Z,53.33
2023-05-16T13:29:20.523Z,52.70
2023-05-16T13:32:28.769Z,53.33
2023-05-16T13:35:32.005Z,53.76
2023-05-16T13:38:35.242Z,54.49
2023-05-16T13:41:40.473Z,55.41
2023-05-16T13:44:45.614Z,55.04
2023-05-16T13:47:52.879Z,55.52
2023-05-16T13:50:57.044Z,56.69
2023-05-16T13:54:00.573Z,57.63
2023-05-16T13:57:03.998Z,56.90
2023-05-16T14:03:30.975Z,58.20
2023-05-16T14:06:34.584Z,57.66
2023-05-16T14:09:39.635Z,60.56
2023-05-16T14:12:48.554Z,61.70
2023-05-16T14:15:52.616Z,64.29
2023-05-16T14:18:56.173Z,65.39
2023-05-16T14:22:25.862Z,66.02
2023-05-16T14:25:30.440Z,63.81
2023-05-16T14:28:34.053Z,64.82
2023-05-16T14:31:37.943Z,67.31
2023-05-16T14:34:41.270Z,66.26
2023-05-16T14:37:45.171Z,67.79
2023-05-16T14:40:48.318Z,68.53
2023-05-16T14:43:51.560Z,68.26
2023-05-16T14:46:54.856Z,68.39
2023-05-16T14:49:58.042Z,67.91
2023-05-16T14:53:01.580Z,68.46
2023-05-16T14:56:05.087Z,69.13
2023-05-16T14:59:08.157Z,70.00
2023-05-16T15:02:11.393Z,70.57
2023-05-16T15:05:16.925Z,70.33
2023-05-16T15:08:20.088Z,70.60
2023-05-16T15:11:23.494Z,71.57
2023-05-16T15:14:27.576Z,71.49
2023-05-16T15:17:30.670Z,72.42
2023-05-16T15:20:34.050Z,73.07
2023-05-16T15:23:37.785Z,72.51
2023-05-16T15:26:41.746Z,73.17
2023-05-16T15:29:44.800Z,73.80
2023-05-16T15:32:48.505Z,73.78
2023-05-16T15:35:52.283Z,74.03
2023-05-16T15:38:55.373Z,73.81
2023-05-16T15:42:09.869Z,73.59
2023-05-16T15:45:17.181Z,74.54
2023-05-16T15:48:20.082Z,75.76
2023-05-16T15:51:23.596Z,75.87
2023-05-16T15:54:29.832Z,77.10
2023-05-16T15:57:32.806Z,78.04
2023-05-16T16:00:36.516Z,77.65
2023-05-16T16:03:39.586Z,77.42
2023-05-16T16:06:42.715Z,77.04
2023-05-16T16:09:46.221Z,76.28
2023-05-16T16:13:03.737Z,78.47
2023-05-16T16:20:02.218Z,76.42
2023-05-16T16:23:46.838Z,78.89
2023-05-16T16:27:56.283Z,78.68
2023-05-16T16:36:13.593Z,77.99
2023-05-16T16:39:45.110Z,79.42
2023-05-16T16:45:42.867Z,76.20
2023-05-16T16:49:57.256Z,77.78
2023-05-16T16:53:13.314Z,79.44
2023-05-16T16:57:05.375Z,80.25
2023-05-16T17:03:44.016Z,81.16
2023-05-16T17:07:50.922Z,81.51
2023-05-16T17:11:11.452Z,82.73
2023-05-16T17:21:16.011Z,84.88
2023-05-16T17:24:23.708Z,85.70
2023-05-16T17:28:32.807Z,86.18
2023-05-16T17:31:45.165Z,87.66
2023-05-16T17:35:23.679Z,88.69
2023-05-16T17:39:22.678Z,89.04
2023-05-16T17:42:58.423Z,89.45
2023-05-16T17:46:01.498Z,89.97
2023-05-16T17:49:07.760Z,90.41
2023-05-16T17:52:10.731Z,90.47
2023-05-16T17:55:13.704Z,90.89
2023-05-16T17:58:18.104Z,91.51
2023-05-16T18:01:21.321Z,92.10
2023-05-16T18:04:24.567Z,92.57
2023-05-16T18:07:27.901Z,92.97
2023-05-16T18:10:43.429Z,93.27
2023-05-16T18:13:54.024Z,93.64
2023-05-16T18:16:57.005Z,93.94
2023-05-16T18:20:00.661Z,94.31
2023-05-16T18:23:13.284Z,94.82
2023-05-16T18:26:33.672Z,95.14
2023-05-16T18:30:14.568Z,95.42
2023-05-16T18:33:38.613Z,95.73
2023-05-16T18:36:42.048Z,95.85
2023-05-16T18:39:45.496Z,95.93
2023-05-16T18:42:49.010Z,96.05
2023-05-16T18:45:54.780Z,96.09
2023-05-16T18:49:26.857Z,96.09
2023-05-16T18:52:30.912Z,96.12
2023-05-16T18:55:50.329Z,96.16
2023-05-16T19:03:45.212Z,96.39
2023-05-16T19:07:05.161Z,96.15
2023-05-16T19:10:26.241Z,95.53
2023-05-16T19:13:36.216Z,95.31
2023-05-16T19:16:57.605Z,95.43
2023-05-16T19:20:12.975Z,95.66
2023-05-16T19:23:25.934Z,95.84
2023-05-16T19:26:52.506Z,95.90
2023-05-16T19:30:12.893Z,95.92
2023-05-16T19:33:25.089Z,96.02
2023-05-16T19:37:17.020Z,96.11
2023-05-16T19:40:28.826Z,96.18
2023-05-16T19:43:32.111Z,96.25
2023-05-16T19:46:43.804Z,96.28
2023-05-16T19:49:47.718Z,96.32
2023-05-16T19:52:52.543Z,96.42
2023-05-16T19:56:13.310Z,96.52
2023-05-16T19:59:19.122Z,96.58
2023-05-16T20:02:28.308Z,96.64
2023-05-16T20:05:36.255Z,96.77
2023-05-16T20:08:55.379Z,96.83
2023-05-16T20:12:00.484Z,96.80
2023-05-16T20:15:14.522Z,96.71
2023-05-16T20:18:22.339Z,96.64
2023-05-16T20:21:26.784Z,96.56
2023-05-16T20:24:42.428Z,96.52
2023-05-16T20:27:54.872Z,96.55
2023-05-16T20:31:19.543Z,96.63
2023-05-16T20:34:23.403Z,96.69
2023-05-16T20:37:48.423Z,96.73
2023-05-16T20:41:13.878Z,96.80
2023-05-16T20:44:18.881Z,96.88
2023-05-16T20:47:30.083Z,96.93
2023-05-16T20:50:36.745Z,96.94
2023-05-16T20:53:47.766Z,96.94
2023-05-16T20:56:55.358Z,96.94
2023-05-16T21:00:15.358Z,97.00
2023-05-16T21:03:22.189Z,97.03
2023-05-16T21:06:37.161Z,97.05
2023-05-16T21:09:44.899Z,97.08
2023-05-16T21:12:51.020Z,97.17
2023-05-16T21:16:18.040Z,97.30
2023-05-16T21:19:35.099Z,97.37
2023-05-16T21:22:59.855Z,97.39
2023-05-16T21:26:15.551Z,97.42
2023-05-16T21:29:39.785Z,97.43
2023-05-16T21:32:44.825Z,97.43
2023-05-16T21:35:49.335Z,97.43
2023-05-16T21:38:55.510Z,97.47
2023-05-16T21:42:02.501Z,97.51
2023-05-16T21:45:23.960Z,97.52
2023-05-16T21:48:50.593Z,97.52
2023-05-16T21:52:06.680Z,97.54
2023-05-16T21:55:13.175Z,97.56
2023-05-16T21:58:20.487Z,97.58
2023-05-16T22:01:42.818Z,97.60
2023-05-16T22:04:53.803Z,97.63
2023-05-16T22:07:58.999Z,97.66
2023-05-16T22:11:02.532Z,97.72
2023-05-16T22:14:06.994Z,97.80
2023-05-16T22:17:30.608Z,97.85
2023-05-16T22:20:49.046Z,97.88
2023-05-16T22:24:02.176Z,97.94
2023-05-16T22:27:14.117Z,98.00
2023-05-16T22:30:36.411Z,98.07
2023-05-16T22:33:59.018Z,98.10
2023-05-16T22:37:07.842Z,98.13
2023-05-16T22:40:16.082Z,98.16
2023-05-16T22:43:35.701Z,98.17
2023-05-16T22:46:41.538Z,98.18
2023-05-16T22:49:45.070Z,98.18
2023-05-16T22:52:49.939Z,98.18
2023-05-16T22:55:55.173Z,98.20
2023-05-16T22:59:06.832Z,98.20
2023-05-16T23:02:19.945Z,98.20
2023-05-16T23:05:35.135Z,98.21
2023-05-16T23:08:43.023Z,98.20
2023-05-16T23:11:46.523Z,98.20
2023-05-16T23:15:02.560Z,98.22
2023-05-16T23:18:32.496Z,98.24
2023-05-16T23:21:44.708Z,98.17
2023-05-16T23:24:52.514Z,98.06
2023-05-16T23:28:20.247Z,97.97
2023-05-16T23:31:32.605Z,97.89
2023-05-16T23:34:37.754Z,97.85
2023-05-16T23:37:47.941Z,97.85
2023-05-16T23:41:03.958Z,97.83
2023-05-16T23:44:08.363Z,97.86
2023-05-16T23:47:57.615Z,97.87
2023-05-16T23:51:08.769Z,97.90
2023-05-16T23:54:25.228Z,97.92
2023-05-16T23:57:46.157Z,97.96
